createdAt,value
2023-05-21T00:00:11.708Z,26.00
2023-05-21T00:04:01.954Z,26.77
2023-05-21T00:07:34.145Z,25.20
2023-05-21T00:11:06.709Z,24.60
2023-05-21T00:14:38.845Z,25.35
2023-05-21T00:18:10.669Z,23.30
2023-05-21T00:21:42.934Z,26.57
2023-05-21T00:25:14.642Z,21.67
2023-05-21T00:28:46.598Z,24.08
2023-05-21T00:32:18.489Z,25.77
2023-05-21T00:35:51.224Z,25.50
2023-05-21T00:39:24.195Z,31.23
2023-05-21T00:42:57.425Z,26.77
2023-05-21T00:46:29.625Z,27.00
2023-05-21T00:50:03.995Z,23.57
2023-05-21T00:53:36.338Z,23.52
2023-05-21T00:57:08.448Z,26.73
2023-05-21T01:00:42.926Z,26.23
2023-05-21T01:04:14.919Z,25.63
2023-05-21T01:07:46.782Z,22.55
2023-05-21T01:11:18.980Z,24.10
2023-05-21T01:14:52.210Z,25.97
2023-05-21T01:18:24.542Z,24.07
2023-05-21T01:22:00.429Z,24.67
2023-05-21T01:25:32.207Z,22.65
2023-05-21T01:29:12.969Z,23.83
2023-05-21T01:33:04.998Z,24.97
2023-05-21T01:36:44.123Z,29.60
2023-05-21T01:40:31.623Z,22.17
2023-05-21T01:44:06.065Z,21.93
2023-05-21T01:47:39.724Z,25.63
2023-05-21T01:51:12.628Z,22.58
2023-05-21T01:54:44.656Z,24.98
2023-05-21T01:58:17.671Z,22.67
2023-05-21T02:01:49.861Z,25.63
2023-05-21T02:05:21.982Z,23.60
2023-05-21T02:08:53.890Z,23.80
2023-05-21T02:12:25.978Z,27.87
2023-05-21T02:15:57.820Z,27.60
2023-05-21T02:19:29.985Z,25.92
2023-05-21T02:23:01.971Z,23.80
2023-05-21T02:26:34.250Z,24.67
2023-05-21T02:30:07.948Z,27.38
2023-05-21T02:33:41.870Z,26.42
2023-05-21T02:37:14.160Z,22.47
2023-05-21T02:40:46.544Z,27.00
2023-05-21T02:44:19.488Z,25.30
2023-05-21T02:47:51.279Z,28.55
2023-05-21T02:51:23.329Z,24.77
2023-05-21T02:54:55.562Z,26.25
2023-05-21T02:58:27.366Z,28.25
2023-05-21T03:01:59.585Z,26.40
2023-05-21T03:05:31.659Z,25.50
2023-05-21T03:09:05.974Z,24.45
2023-05-21T03:12:38.184Z,28.23
2023-05-21T03:16:10.350Z,30.07
2023-05-21T03:19:43.958Z,27.77
2023-05-21T03:23:16.838Z,27.67
2023-05-21T03:26:50.295Z,28.95
2023-05-21T03:30:22.224Z,26.20
2023-05-21T03:33:54.469Z,29.00
2023-05-21T03:37:26.276Z,25.83
2023-05-21T03:40:58.483Z,23.92
2023-05-21T03:44:32.881Z,25.47
2023-05-21T03:48:05.182Z,23.63
2023-05-21T03:51:38.375Z,26.80
2023-05-21T03:55:10.398Z,24.83
2023-05-21T03:58:42.766Z,22.53
2023-05-21T04:02:14.682Z,21.70
2023-05-21T04:05:46.789Z,26.42
2023-05-21T04:09:18.770Z,20.30
2023-05-21T04:12:52.487Z,22.70
2023-05-21T04:16:24.793Z,21.67
2023-05-21T04:19:56.860Z,20.83
2023-05-21T04:23:28.613Z,19.85
2023-05-21T04:27:01.605Z,22.10
2023-05-21T04:30:35.862Z,19.63
2023-05-21T04:34:08.084Z,18.33
2023-05-21T04:37:42.177Z,22.27
2023-05-21T04:41:14.988Z,18.33
2023-05-21T04:44:46.750Z,18.50
2023-05-21T04:48:18.994Z,16.67
2023-05-21T04:51:50.739Z,18.35
2023-05-21T04:55:23.196Z,15.33
2023-05-21T04:58:55.918Z,15.53
2023-05-21T05:02:27.986Z,13.93
2023-05-21T05:06:00.146Z,19.38
2023-05-21T05:09:32.704Z,13.40
2023-05-21T05:13:04.883Z,15.10
2023-05-21T05:16:37.448Z,13.25
2023-05-21T05:20:10.903Z,12.27
2023-05-21T05:23:43.169Z,10.05
2023-05-21T05:27:14.895Z,10.83
2023-05-21T05:30:47.022Z,13.38
2023-05-21T05:34:20.087Z,11.25
2023-05-21T05:37:52.219Z,11.13
2023-05-21T05:41:23.955Z,12.00
2023-05-21T05:44:56.085Z,12.00
2023-05-21T05:48:27.930Z,9.45
2023-05-21T05:52:01.155Z,10.23
2023-05-21T05:55:33.012Z,11.73
2023-05-21T05:59:05.520Z,9.18
2023-05-21T06:02:37.687Z,10.15
2023-05-21T06:06:10.195Z,10.02
2023-05-21T06:09:42.050Z,9.50
2023-05-21T06:13:14.144Z,10.20
2023-05-21T06:16:45.956Z,8.98
2023-05-21T06:20:18.100Z,9.40
2023-05-21T06:23:50.120Z,9.57
2023-05-21T06:27:22.047Z,9.93
2023-05-21T06:30:54.046Z,9.07
2023-05-21T06:34:26.192Z,8.38
2023-05-21T06:37:57.880Z,9.30
2023-05-21T06:41:29.881Z,8.70
2023-05-21T06:45:02.172Z,11.93
2023-05-21T06:48:34.220Z,8.07
2023-05-21T06:52:06.676Z,9.80
2023-05-21T06:55:38.765Z,6.28
2023-05-21T06:59:11.138Z,11.70
2023-05-21T07:02:43.370Z,7.50
2023-05-21T07:06:15.472Z,9.20
2023-05-21T07:09:47.724Z,8.32
2023-05-21T07:13:19.856Z,7.03
2023-05-21T07:16:51.811Z,9.00
2023-05-21T07:20:23.988Z,9.57
2023-05-21T07:23:56.631Z,8.07
2023-05-21T07:27:28.760Z,8.35
2023-05-21T07:31:00.673Z,9.45
2023-05-21T07:34:33.067Z,8.13
2023-05-21T07:38:05.302Z,5.80
2023-05-21T07:41:37.246Z,7.47
2023-05-21T07:45:09.675Z,8.10
2023-05-21T07:48:41.971Z,8.37
2023-05-21T07:52:14.200Z,7.00
2023-05-21T07:55:49.938Z,8.00
2023-05-21T07:59:22.217Z,6.80
2023-05-21T08:02:54.209Z,10.93
2023-05-21T08:06:26.790Z,5.80
2023-05-21T08:09:59.290Z,6.65
2023-05-21T08:13:31.307Z,6.40
2023-05-21T08:17:03.561Z,8.27
2023-05-21T08:20:35.373Z,7.20
2023-05-21T08:24:10.520Z,7.03
2023-05-21T08:27:42.842Z,7.88
2023-05-21T08:31:14.858Z,7.40
2023-05-21T08:34:47.294Z,9.10
2023-05-21T08:38:19.254Z,7.07
2023-05-21T08:41:55.864Z,9.00
2023-05-21T08:45:37.716Z,8.37
2023-05-21T08:49:13.650Z,5.60
2023-05-21T08:52:46.073Z,6.93
2023-05-21T08:56:21.224Z,14.63
2023-05-21T08:59:53.470Z,6.17
2023-05-21T09:03:26.757Z,7.28
2023-05-21T09:06:59.401Z,7.38
2023-05-21T09:10:40.162Z,6.15
2023-05-21T09:14:14.527Z,4.90
2023-05-21T09:17:50.206Z,9.73
2023-05-21T09:21:31.692Z,5.10
2023-05-21T09:25:10.645Z,8.48
2023-05-21T09:28:43.460Z,7.20
2023-05-21T09:32:17.768Z,8.05
2023-05-21T09:35:50.329Z,7.38
2023-05-21T09:39:29.797Z,6.85
2023-05-21T09:43:02.023Z,7.60
2023-05-21T09:46:43.069Z,6.65
2023-05-21T09:50:22.717Z,7.07
2023-05-21T09:53:58.259Z,7.07
2023-05-21T09:57:30.688Z,7.57
2023-05-21T10:01:02.672Z,9.25
2023-05-21T10:04:35.218Z,6.10
2023-05-21T10:08:10.260Z,6.63
2023-05-21T10:11:45.141Z,6.47
2023-05-21T10:15:25.136Z,6.72
2023-05-21T10:19:01.059Z,6.53
2023-05-21T10:22:33.666Z,8.67
2023-05-21T10:26:07.996Z,7.27
2023-05-21T10:29:42.041Z,13.05
2023-05-21T10:33:17.232Z,8.77
2023-05-21T10:36:50.152Z,10.77
2023-05-21T10:40:22.042Z,10.03
2023-05-21T10:44:03.820Z,6.03
2023-05-21T10:47:52.908Z,5.47
2023-05-21T10:51:39.693Z,6.93
2023-05-21T10:55:27.923Z,11.37
2023-05-21T10:59:29.202Z,8.70
2023-05-21T11:03:03.475Z,8.35
2023-05-21T11:06:35.726Z,6.33
2023-05-21T11:10:36.604Z,8.20
2023-05-21T11:14:28.866Z,5.90
2023-05-21T11:18:01.267Z,6.90
2023-05-21T11:21:34.882Z,6.80
2023-05-21T11:25:07.459Z,6.53
2023-05-21T11:28:39.183Z,6.97
2023-05-21T11:32:13.098Z,6.20
2023-05-21T11:35:45.071Z,8.30
2023-05-21T11:39:23.966Z,8.02
2023-05-21T11:42:56.745Z,7.63
2023-05-21T11:46:29.962Z,6.85
2023-05-21T11:50:04.262Z,9.73
2023-05-21T11:53:39.288Z,7.60
2023-05-21T11:57:11.777Z,6.27
2023-05-21T12:00:44.512Z,6.95
2023-05-21T12:04:16.495Z,6.85
2023-05-21T12:07:50.379Z,6.10
2023-05-21T12:11:23.075Z,6.13
2023-05-21T12:14:55.697Z,7.13
2023-05-21T12:18:28.098Z,6.60
2023-05-21T12:22:04.273Z,6.60
2023-05-21T12:25:36.322Z,7.07
2023-05-21T12:29:08.539Z,8.85
2023-05-21T12:32:46.679Z,6.50
2023-05-21T12:36:29.562Z,6.07
2023-05-21T12:40:10.953Z,7.57
2023-05-21T12:43:42.962Z,8.73
2023-05-21T12:47:15.451Z,8.17
2023-05-21T12:50:47.229Z,6.55
2023-05-21T12:54:19.416Z,8.93
2023-05-21T12:57:52.116Z,7.18
2023-05-21T13:01:25.032Z,7.53
2023-05-21T13:05:04.665Z,6.20
2023-05-21T13:08:37.986Z,6.15
2023-05-21T13:12:10.096Z,5.87
2023-05-21T13:15:42.007Z,6.73
2023-05-21T13:19:15.355Z,8.60
2023-05-21T13:22:49.572Z,10.70
2023-05-21T13:26:21.636Z,7.13
2023-05-21T13:29:54.009Z,6.00
2023-05-21T13:33:26.273Z,6.53
2023-05-21T13:36:58.497Z,5.93
2023-05-21T13:40:30.224Z,7.73
2023-05-21T13:44:02.483Z,7.60
2023-05-21T13:47:35.624Z,6.40
2023-05-21T13:51:09.194Z,7.60
2023-05-21T13:54:42.998Z,8.35
2023-05-21T13:58:14.732Z,6.45
2023-05-21T14:01:48.038Z,5.80
2023-05-21T14:05:20.030Z,7.80
2023-05-21T14:08:52.144Z,7.70
2023-05-21T14:12:23.977Z,7.45
2023-05-21T14:16:01.561Z,7.80
2023-05-21T14:19:33.894Z,6.45
2023-05-21T14:23:07.654Z,6.63
2023-05-21T14:26:42.729Z,5.80
2023-05-21T14:30:14.591Z,5.60
2023-05-21T14:33:46.688Z,7.50
2023-05-21T14:37:19.989Z,7.20
2023-05-21T14:40:52.281Z,7.23
2023-05-21T14:44:27.179Z,8.03
2023-05-21T14:47:59.393Z,7.45
2023-05-21T14:52:00.730Z,7.13
2023-05-21T14:55:47.436Z,6.50
2023-05-21T14:59:19.495Z,6.95
2023-05-21T15:02:52.267Z,6.43
2023-05-21T15:06:25.713Z,6.25
2023-05-21T15:09:57.891Z,8.07
2023-05-21T15:13:29.750Z,8.70
2023-05-21T15:17:01.810Z,7.68
2023-05-21T15:20:33.675Z,6.23
2023-05-21T15:24:05.962Z,7.80
2023-05-21T15:27:38.052Z,5.88
2023-05-21T15:31:11.789Z,5.95
2023-05-21T15:34:44.461Z,5.77
2023-05-21T15:38:16.224Z,5.93
2023-05-21T15:41:48.332Z,7.88
2023-05-21T15:45:20.711Z,5.13
2023-05-21T15:48:52.781Z,8.00
2023-05-21T15:52:25.668Z,8.47
2023-05-21T15:55:57.994Z,6.75
2023-05-21T15:59:30.009Z,5.88
2023-05-21T16:03:02.568Z,8.23
2023-05-21T16:06:34.940Z,7.60
2023-05-21T16:10:10.750Z,6.18
2023-05-21T16:13:42.771Z,5.65
2023-05-21T16:17:14.726Z,6.60
2023-05-21T16:20:47.546Z,6.93
2023-05-21T16:24:19.561Z,8.55
2023-05-21T16:27:51.550Z,5.90
2023-05-21T16:31:23.592Z,5.37
2023-05-21T16:34:55.731Z,6.57
2023-05-21T16:38:27.730Z,5.85
2023-05-21T16:42:01.113Z,5.25
2023-05-21T16:45:39.249Z,7.67
2023-05-21T16:49:11.365Z,7.07
2023-05-21T16:52:43.471Z,6.00
2023-05-21T16:56:15.481Z,5.43
2023-05-21T16:59:47.669Z,5.43
2023-05-21T17:03:19.768Z,7.73
2023-05-21T17:06:52.018Z,4.80
2023-05-21T17:10:25.092Z,5.43
2023-05-21T17:13:56.814Z,5.57
2023-05-21T17:17:29.066Z,6.07
2023-05-21T17:21:00.920Z,5.95
2023-05-21T17:24:32.922Z,4.88
2023-05-21T17:28:07.797Z,5.15
2023-05-21T17:31:39.848Z,6.47
2023-05-21T17:35:12.058Z,8.82
2023-05-21T17:38:44.228Z,5.20
2023-05-21T17:42:17.411Z,5.67
2023-05-21T17:45:49.309Z,6.20
2023-05-21T17:49:21.351Z,7.45
2023-05-21T17:52:53.041Z,7.68
2023-05-21T17:56:25.166Z,5.90
2023-05-21T17:59:57.325Z,6.97
2023-05-21T18:03:29.769Z,5.35
2023-05-21T18:07:01.964Z,6.35
2023-05-21T18:10:33.815Z,6.35
2023-05-21T18:14:05.882Z,5.73
2023-05-21T18:17:37.687Z,10.47
2023-05-21T18:21:13.373Z,8.00
2023-05-21T18:24:46.285Z,8.05
2023-05-21T18:28:29.588Z,9.52
2023-05-21T18:32:01.890Z,8.57
2023-05-21T18:35:34.314Z,6.40
2023-05-21T18:39:07.895Z,7.07
2023-05-21T18:42:40.373Z,9.02
2023-05-21T18:46:12.271Z,7.07
2023-05-21T18:49:44.836Z,7.20
2023-05-21T18:53:16.558Z,8.00
2023-05-21T18:56:48.590Z,6.33
2023-05-21T19:00:20.930Z,7.40
2023-05-21T19:03:53.118Z,6.40
2023-05-21T19:07:25.473Z,5.88
2023-05-21T19:10:57.309Z,5.87
2023-05-21T19:14:29.845Z,6.00
2023-05-21T19:18:03.571Z,8.52
2023-05-21T19:21:36.646Z,12.68
2023-05-21T19:25:08.604Z,7.70
2023-05-21T19:28:40.985Z,6.93
2023-05-21T19:32:13.887Z,6.90
2023-05-21T19:35:45.617Z,6.47
2023-05-21T19:39:17.643Z,5.82
2023-05-21T19:42:49.437Z,6.80
2023-05-21T19:46:21.852Z,5.90
2023-05-21T19:49:53.889Z,5.72
2023-05-21T19:53:26.349Z,6.63
2023-05-21T19:56:58.183Z,5.47
2023-05-21T20:00:30.769Z,7.25
2023-05-21T20:04:03.223Z,9.23
2023-05-21T20:07:35.133Z,5.57
2023-05-21T20:11:09.709Z,6.50
2023-05-21T20:14:41.878Z,7.25
2023-05-21T20:18:15.575Z,6.97
2023-05-21T20:21:47.686Z,6.37
2023-05-21T20:25:20.214Z,9.63
2023-05-21T20:28:52.206Z,6.68
2023-05-21T20:32:27.740Z,6.03
2023-05-21T20:36:03.074Z,5.97
2023-05-21T20:39:37.582Z,5.70
2023-05-21T20:43:13.799Z,6.65
2023-05-21T20:46:46.392Z,6.43
2023-05-21T20:50:21.662Z,7.57
2023-05-21T20:54:01.066Z,5.10
2023-05-21T20:57:33.162Z,6.68
2023-05-21T21:01:05.004Z,7.00
2023-05-21T21:04:38.096Z,6.33
2023-05-21T21:08:10.571Z,6.90
2023-05-21T21:11:42.701Z,7.38
2023-05-21T21:15:15.008Z,6.90
2023-05-21T21:18:52.546Z,6.57
2023-05-21T21:22:24.664Z,5.73
2023-05-21T21:25:59.458Z,6.20
2023-05-21T21:29:31.415Z,9.35
2023-05-21T21:33:03.850Z,8.70
2023-05-21T21:36:35.704Z,8.13
2023-05-21T21:40:08.339Z,6.07
2023-05-21T21:43:40.228Z,9.32
2023-05-21T21:47:12.294Z,5.60
2023-05-21T21:50:44.484Z,7.07
2023-05-21T21:54:16.782Z,5.60
2023-05-21T21:57:50.062Z,7.85
2023-05-21T22:01:25.134Z,6.23
2023-05-21T22:04:59.411Z,7.50
2023-05-21T22:08:31.203Z,7.15
2023-05-21T22:12:07.707Z,7.20
2023-05-21T22:15:39.865Z,6.97
2023-05-21T22:19:12.969Z,7.80
2023-05-21T22:22:46.084Z,7.60
2023-05-21T22:26:17.904Z,7.28
2023-05-21T22:29:50.082Z,6.65
2023-05-21T22:33:22.580Z,6.30
2023-05-21T22:36:54.709Z,8.35
2023-05-21T22:40:26.722Z,5.78
2023-05-21T22:43:58.668Z,7.97
2023-05-21T22:47:32.205Z,5.30
2023-05-21T22:51:04.788Z,8.73
2023-05-21T22:54:37.003Z,7.70
2023-05-21T22:58:08.905Z,6.63
2023-05-21T23:01:41.181Z,8.33
2023-05-21T23:05:13.332Z,9.55
2023-05-21T23:08:45.553Z,7.60
2023-05-21T23:12:17.632Z,7.25
2023-05-21T23:15:50.747Z,10.70
2023-05-21T23:19:22.495Z,7.60
2023-05-21T23:22:54.654Z,9.48
2023-05-21T23:26:26.783Z,6.22
2023-05-21T23:29:58.592Z,7.63
2023-05-21T23:33:30.711Z,8.88
2023-05-21T23:37:02.899Z,10.02
2023-05-21T23:40:34.597Z,6.57
2023-05-21T23:44:06.607Z,9.40
2023-05-21T23:47:38.543Z,9.50
2023-05-21T23:51:10.973Z,8.98
2023-05-21T23:54:42.803Z,10.43
2023-05-21T23:58:14.925Z,6.90
